createdAt,value
2019-05-22T00:01:01.251Z,10.60
2019-05-22T00:03:38.017Z,12.07
2019-05-22T00:06:09.907Z,11.30
2019-05-22T00:08:41.582Z,10.63
2019-05-22T00:11:13.184Z,11.00
2019-05-22T00:13:46.070Z,11.93
2019-05-22T00:16:17.261Z,12.90
2019-05-22T00:18:50.507Z,13.15
2019-05-22T00:21:22.811Z,11.00
2019-05-22T00:23:54.700Z,11.20
2019-05-22T00:26:25.349Z,10.85
2019-05-22T00:28:56.386Z,12.55
2019-05-22T00:41:32.346Z,11.08
2019-05-22T00:44:04.602Z,11.28
2019-05-22T00:46:35.968Z,11.18
2019-05-22T00:49:06.782Z,11.10
2019-05-22T00:51:45.748Z,10.28
2019-05-22T00:54:26.028Z,10.40
2019-05-22T00:57:03.816Z,10.38
2019-05-22T00:59:35.457Z,11.90
2019-05-22T01:02:08.739Z,11.03
2019-05-22T01:04:41.145Z,9.60
2019-05-22T01:07:18.392Z,11.00
2019-05-22T01:09:51.411Z,14.05
2019-05-22T01:12:29.707Z,10.82
2019-05-22T01:15:05.243Z,10.60
2019-05-22T01:17:36.732Z,9.83
2019-05-22T01:20:10.748Z,10.90
2019-05-22T01:22:42.485Z,9.85
2019-05-22T01:25:17.235Z,10.70
2019-05-22T01:27:49.133Z,11.05
2019-05-22T01:30:26.555Z,10.82
2019-05-22T01:32:59.735Z,9.95
2019-05-22T01:51:07.328Z,11.73
2019-05-22T01:53:38.508Z,11.00
2019-05-22T01:56:13.947Z,11.48
2019-05-22T01:58:45.086Z,11.75
2019-05-22T02:01:21.577Z,10.93
2019-05-22T02:03:55.959Z,11.33
2019-05-22T02:06:28.385Z,11.35
2019-05-22T02:09:12.054Z,11.68
2019-05-22T02:11:45.751Z,9.43
2019-05-22T02:14:18.180Z,9.83
2019-05-22T02:16:56.791Z,10.78
2019-05-22T02:19:22.456Z,11.00
2019-05-22T02:21:54.268Z,10.38
2019-05-22T02:24:25.253Z,10.50
2019-05-22T02:26:55.656Z,9.93
2019-05-22T02:29:26.484Z,10.55
2019-05-22T02:31:58.730Z,11.03
2019-05-22T02:34:30.331Z,9.33
2019-05-22T02:37:00.511Z,10.30
2019-05-22T02:39:34.933Z,10.70
2019-05-22T02:42:11.758Z,10.68
2019-05-22T02:44:45.156Z,10.60
2019-05-22T02:47:21.167Z,9.83
2019-05-22T02:49:51.791Z,9.70
2019-05-22T02:52:24.143Z,9.85
2019-05-22T02:54:55.442Z,9.35
2019-05-22T02:57:28.358Z,10.08
2019-05-22T03:00:00.871Z,10.72
2019-05-22T03:02:33.087Z,9.48
2019-05-22T03:05:07.180Z,9.65
2019-05-22T03:07:39.898Z,10.95
2019-05-22T03:10:17.234Z,10.60
2019-05-22T03:12:49.321Z,10.35
2019-05-22T03:15:25.806Z,10.75
2019-05-22T03:18:01.663Z,11.00
2019-05-22T03:20:33.418Z,11.08
2019-05-22T03:23:36.590Z,10.55
2019-05-22T03:26:09.126Z,11.53
2019-05-22T03:28:41.083Z,10.80
2019-05-22T03:31:12.164Z,11.70
2019-05-22T03:33:43.390Z,11.20
2019-05-22T03:36:21.069Z,10.90
2019-05-22T03:38:51.764Z,10.82
2019-05-22T03:41:23.060Z,11.50
2019-05-22T03:43:53.209Z,11.25
2019-05-22T03:46:38.926Z,11.30
2019-05-22T03:49:28.939Z,11.50
2019-05-22T03:51:50.896Z,12.73
2019-05-22T03:54:24.105Z,11.70
2019-05-22T03:56:55.961Z,13.32
2019-05-22T03:59:26.762Z,15.75
2019-05-22T04:01:58.038Z,14.55
2019-05-22T04:04:37.151Z,15.08
2019-05-22T04:07:16.071Z,17.00
2019-05-22T04:09:48.474Z,15.95
2019-05-22T04:12:22.353Z,14.85
2019-05-22T04:14:52.469Z,15.15
2019-05-22T04:17:30.524Z,13.98
2019-05-22T04:20:04.411Z,14.73
2019-05-22T04:22:34.665Z,11.55
2019-05-22T04:25:08.418Z,13.25
2019-05-22T04:27:40.433Z,13.32
2019-05-22T04:30:14.081Z,12.33
2019-05-22T04:32:46.077Z,12.85
2019-05-22T04:35:19.532Z,11.85
2019-05-22T04:37:52.854Z,13.03
2019-05-22T04:41:02.383Z,11.78
2019-05-22T04:43:34.888Z,12.20
2019-05-22T04:46:10.662Z,13.98
2019-05-22T04:48:45.862Z,16.50
2019-05-22T04:51:27.209Z,15.25
2019-05-22T04:53:58.226Z,14.45
2019-05-22T04:56:30.054Z,13.20
2019-05-22T04:59:01.862Z,14.43
2019-05-22T05:01:32.071Z,13.72
2019-05-22T05:04:02.900Z,13.35
2019-05-22T05:06:37.651Z,13.53
2019-05-22T05:09:13.154Z,15.20
2019-05-22T05:11:45.186Z,12.45
2019-05-22T05:14:15.623Z,15.38
2019-05-22T05:16:46.977Z,15.50
2019-05-22T05:19:19.558Z,15.70
2019-05-22T05:21:50.165Z,18.02
2019-05-22T05:24:20.420Z,18.05
2019-05-22T05:26:51.831Z,15.13
2019-05-22T05:29:33.348Z,16.05
2019-05-22T05:32:06.128Z,17.60
2019-05-22T05:35:00.641Z,16.70
2019-05-22T05:37:31.743Z,19.50
2019-05-22T05:40:46.498Z,17.70
2019-05-22T05:43:18.733Z,16.80
2019-05-22T05:45:50.497Z,16.32
2019-05-22T05:48:24.836Z,17.42
2019-05-22T05:51:37.576Z,15.63
2019-05-22T05:54:20.238Z,19.92
2019-05-22T05:56:52.445Z,18.70
2019-05-22T05:59:25.760Z,19.82
2019-05-22T06:01:56.604Z,19.05
2019-05-22T06:04:35.326Z,18.82
2019-05-22T06:07:25.573Z,19.62
2019-05-22T06:10:33.030Z,20.95
2019-05-22T06:13:04.370Z,20.85
2019-05-22T06:16:00.824Z,21.17
2019-05-22T06:18:37.349Z,23.77
2019-05-22T06:21:08.909Z,24.47
2019-05-22T06:24:16.693Z,20.62
2019-05-22T06:27:18.818Z,22.52
2019-05-22T06:29:57.149Z,23.07
2019-05-22T06:32:55.458Z,21.80
2019-05-22T06:35:29.769Z,23.18
2019-05-22T06:38:11.544Z,22.00
2019-05-22T06:40:42.615Z,21.23
2019-05-22T06:44:01.517Z,21.07
2019-05-22T06:46:46.287Z,22.20
2019-05-22T06:49:41.847Z,21.82
2019-05-22T06:52:25.709Z,20.23
2019-05-22T06:54:58.746Z,21.93
2019-05-22T06:57:33.376Z,20.00
2019-05-22T07:00:16.616Z,22.30
2019-05-22T07:02:50.386Z,18.95
2019-05-22T07:05:24.166Z,18.67
2019-05-22T07:07:55.186Z,20.40
2019-05-22T07:10:28.490Z,19.10
2019-05-22T07:13:00.981Z,18.67
2019-05-22T07:15:36.479Z,19.07
2019-05-22T07:18:07.332Z,17.42
2019-05-22T07:20:40.029Z,18.17
2019-05-22T07:23:15.156Z,20.45
2019-05-22T07:25:47.193Z,18.42
2019-05-22T07:28:19.282Z,18.07
2019-05-22T07:30:50.493Z,18.12
2019-05-22T07:33:20.863Z,19.98
2019-05-22T07:36:08.746Z,18.67
2019-05-22T07:38:25.485Z,16.75
2019-05-22T07:40:56.357Z,17.15
2019-05-22T07:43:26.690Z,17.10
2019-05-22T07:45:57.603Z,18.67
2019-05-22T07:48:31.842Z,18.90
2019-05-22T07:51:04.752Z,18.10
2019-05-22T07:53:34.966Z,16.95
2019-05-22T07:56:09.920Z,17.12
2019-05-22T07:58:41.464Z,17.25
2019-05-22T08:01:13.333Z,15.15
2019-05-22T08:03:49.221Z,14.75
2019-05-22T08:06:19.972Z,14.10
2019-05-22T08:08:52.545Z,13.68
2019-05-22T08:11:25.096Z,12.23
2019-05-22T08:13:59.181Z,15.13
2019-05-22T08:16:29.794Z,13.93
2019-05-22T08:19:01.847Z,12.45
2019-05-22T08:21:36.225Z,13.75
2019-05-22T08:24:08.203Z,13.00
2019-05-22T08:26:53.279Z,12.25
2019-05-22T08:29:11.328Z,13.83
2019-05-22T08:31:44.520Z,12.55
2019-05-22T08:34:15.121Z,14.60
2019-05-22T08:36:48.169Z,13.88
2019-05-22T08:39:19.109Z,15.25
2019-05-22T08:41:50.581Z,16.35
2019-05-22T08:44:21.329Z,16.07
2019-05-22T08:46:52.719Z,16.35
2019-05-22T08:49:23.805Z,16.05
2019-05-22T08:51:54.332Z,15.93
2019-05-22T08:54:25.418Z,14.87
2019-05-22T08:56:55.930Z,15.93
2019-05-22T08:59:26.392Z,15.65
2019-05-22T09:01:57.003Z,14.23
2019-05-22T09:04:27.140Z,15.35
2019-05-22T09:06:59.173Z,15.88
2019-05-22T09:09:31.113Z,15.08
2019-05-22T09:12:01.604Z,15.60
2019-05-22T09:14:31.729Z,14.35
2019-05-22T09:17:03.739Z,14.15
2019-05-22T09:19:34.099Z,13.03
2019-05-22T09:22:07.793Z,11.75
2019-05-22T09:24:38.996Z,11.80
2019-05-22T09:27:09.692Z,11.57
2019-05-22T09:29:40.061Z,13.62
2019-05-22T09:32:14.412Z,10.72
2019-05-22T09:34:45.769Z,11.38
2019-05-22T09:37:16.131Z,11.00
2019-05-22T09:39:46.630Z,9.40
2019-05-22T09:42:17.450Z,10.85
2019-05-22T09:44:52.446Z,11.97
2019-05-22T09:47:25.373Z,10.70
2019-05-22T09:49:57.516Z,9.45
2019-05-22T09:52:28.031Z,10.40
2019-05-22T09:54:58.508Z,9.18
2019-05-22T09:57:33.645Z,9.30
2019-05-22T10:00:05.704Z,9.93
2019-05-22T10:02:36.592Z,10.23
2019-05-22T10:05:08.596Z,9.05
2019-05-22T10:07:57.045Z,7.75
2019-05-22T10:10:14.389Z,8.53
2019-05-22T10:12:46.665Z,8.40
2019-05-22T10:15:19.546Z,8.03
2019-05-22T10:17:50.674Z,8.15
2019-05-22T10:20:28.907Z,7.75
2019-05-22T10:23:14.025Z,7.40
2019-05-22T10:25:31.851Z,7.45
2019-05-22T10:28:03.407Z,7.97
2019-05-22T10:30:36.210Z,7.20
2019-05-22T10:33:11.161Z,6.40
2019-05-22T10:35:43.497Z,7.47
2019-05-22T10:38:16.608Z,8.70
2019-05-22T10:40:50.873Z,8.03
2019-05-22T10:43:23.040Z,8.78
2019-05-22T10:45:57.328Z,8.40
2019-05-22T10:48:30.466Z,7.78
2019-05-22T10:51:01.810Z,8.40
2019-05-22T10:53:34.315Z,8.18
2019-05-22T10:56:04.624Z,7.30
2019-05-22T10:58:34.803Z,7.28
2019-05-22T11:01:08.229Z,7.92
2019-05-22T11:03:38.631Z,6.00
2019-05-22T11:06:11.673Z,7.03
2019-05-22T11:08:41.912Z,7.08
2019-05-22T11:11:13.152Z,7.70
2019-05-22T11:13:59.790Z,7.67
2019-05-22T11:16:16.015Z,7.78
2019-05-22T11:18:48.905Z,6.78
2019-05-22T11:21:19.573Z,6.85
2019-05-22T11:23:52.744Z,6.90
2019-05-22T11:26:25.489Z,6.40
2019-05-22T11:28:55.991Z,6.55
2019-05-22T11:31:27.932Z,6.83
2019-05-22T11:34:00.557Z,7.12
2019-05-22T11:36:33.587Z,6.58
2019-05-22T11:39:05.581Z,5.72
2019-05-22T11:41:36.512Z,6.83
2019-05-22T11:44:07.056Z,6.97
2019-05-22T11:46:37.930Z,6.05
2019-05-22T11:49:08.574Z,5.03
2019-05-22T11:51:39.247Z,5.95
2019-05-22T11:54:11.329Z,6.05
2019-05-22T11:56:48.396Z,5.70
2019-05-22T11:59:19.340Z,6.47
2019-05-22T12:04:46.639Z,6.30
2019-05-22T12:07:09.561Z,4.95
2019-05-22T12:09:42.464Z,6.20
2019-05-22T12:12:27.115Z,5.90
2019-05-22T12:15:00.512Z,6.87
2019-05-22T12:17:38.244Z,5.08
2019-05-22T12:20:23.649Z,5.00
2019-05-22T12:22:54.402Z,4.72
2019-05-22T12:25:26.501Z,4.90
2019-05-22T12:27:58.650Z,4.42
2019-05-22T12:30:29.918Z,4.70
2019-05-22T12:33:13.605Z,4.28
2019-05-22T12:35:42.400Z,4.37
2019-05-22T12:38:15.181Z,4.97
2019-05-22T12:40:46.841Z,3.65
2019-05-22T12:43:21.655Z,3.85
2019-05-22T12:46:03.335Z,4.20
2019-05-22T12:48:36.050Z,4.35
2019-05-22T12:51:11.166Z,5.03
2019-05-22T12:56:24.236Z,3.53
2019-05-22T12:59:15.756Z,3.70
2019-05-22T13:01:58.391Z,4.23
2019-05-22T13:04:30.162Z,3.77
2019-05-22T13:07:01.251Z,3.50
2019-05-22T13:09:35.554Z,3.93
2019-05-22T13:12:10.264Z,3.80
2019-05-22T13:14:42.122Z,3.73
2019-05-22T13:17:15.999Z,4.03
2019-05-22T13:19:48.026Z,4.03
2019-05-22T13:22:25.341Z,3.77
2019-05-22T13:24:55.111Z,3.50
2019-05-22T13:27:26.659Z,3.60
2019-05-22T13:29:59.181Z,2.97
2019-05-22T13:32:30.355Z,3.00
2019-05-22T13:35:02.650Z,3.50
2019-05-22T13:37:33.452Z,3.30
2019-05-22T13:40:06.175Z,3.10
2019-05-22T13:42:37.061Z,4.47
2019-05-22T13:45:27.344Z,3.93
2019-05-22T13:47:41.228Z,3.37
2019-05-22T13:50:17.148Z,2.83
2019-05-22T13:52:54.680Z,3.43
2019-05-22T13:55:24.955Z,3.03
2019-05-22T14:01:08.000Z,4.00
2019-05-22T14:04:03.108Z,2.70
2019-05-22T14:07:39.228Z,3.47
2019-05-22T14:10:17.729Z,3.13
2019-05-22T14:12:54.965Z,2.60
2019-05-22T14:15:27.249Z,3.10
2019-05-22T14:17:59.639Z,3.53
2019-05-22T14:20:32.106Z,3.40
2019-05-22T14:23:20.306Z,3.20
2019-05-22T14:25:52.461Z,2.83
2019-05-22T14:28:30.586Z,2.43
2019-05-22T14:31:05.473Z,3.33
2019-05-22T14:33:43.138Z,3.40
2019-05-22T14:36:20.685Z,2.57
2019-05-22T14:38:59.916Z,2.97
2019-05-22T14:41:39.570Z,2.90
2019-05-22T14:44:25.438Z,2.63
2019-05-22T14:47:10.641Z,3.00
2019-05-22T14:49:30.864Z,2.80
2019-05-22T14:52:01.646Z,2.97
2019-05-22T14:54:34.803Z,2.90
2019-05-22T14:57:05.605Z,2.80
2019-05-22T14:59:36.227Z,3.03
2019-05-22T15:02:08.409Z,2.50
2019-05-22T15:04:39.326Z,2.77
2019-05-22T15:07:12.503Z,3.17
2019-05-22T15:09:43.553Z,1.93
2019-05-22T15:12:16.723Z,2.20
2019-05-22T15:14:49.242Z,2.50
2019-05-22T15:17:32.404Z,2.30
2019-05-22T15:19:57.757Z,1.90
2019-05-22T15:22:35.281Z,2.00
2019-05-22T15:25:06.297Z,2.30
2019-05-22T15:27:37.178Z,2.87
2019-05-22T15:30:08.759Z,2.27
2019-05-22T15:32:39.796Z,2.10
2019-05-22T15:35:13.115Z,2.83
2019-05-22T15:37:44.789Z,2.27
2019-05-22T15:40:15.845Z,2.07
2019-05-22T15:42:48.531Z,2.13
2019-05-22T15:45:21.684Z,2.47
2019-05-22T15:47:58.671Z,2.73
2019-05-22T15:50:32.096Z,2.00
2019-05-22T15:53:11.193Z,2.33
2019-05-22T15:55:42.656Z,2.10
2019-05-22T15:58:15.291Z,1.47
2019-05-22T16:00:47.532Z,2.20
2019-05-22T16:03:21.036Z,2.13
2019-05-22T16:05:51.547Z,2.67
2019-05-22T16:08:21.921Z,2.33
2019-05-22T16:10:53.152Z,1.83
2019-05-22T16:13:24.833Z,1.97
2019-05-22T16:15:59.945Z,2.40
2019-05-22T16:18:34.412Z,2.20
2019-05-22T16:21:07.850Z,3.10
2019-05-22T16:23:38.471Z,2.77
2019-05-22T16:26:11.926Z,2.47
2019-05-22T16:28:45.774Z,3.03
2019-05-22T16:31:17.933Z,2.70
2019-05-22T16:33:49.316Z,2.67
2019-05-22T16:36:20.029Z,2.50
2019-05-22T16:38:51.771Z,2.90
2019-05-22T16:41:23.639Z,2.30
2019-05-22T16:43:54.786Z,2.70
2019-05-22T16:46:25.714Z,2.40
2019-05-22T16:48:56.127Z,1.90
2019-05-22T16:51:30.085Z,2.57
2019-05-22T16:54:07.217Z,2.27
2019-05-22T16:56:39.327Z,2.50
2019-05-22T16:59:12.609Z,3.33
2019-05-22T17:01:58.802Z,3.20
2019-05-22T17:04:17.222Z,2.63
2019-05-22T17:06:47.588Z,3.87
2019-05-22T17:09:21.127Z,4.47
2019-05-22T17:11:54.778Z,4.23
2019-05-22T17:14:26.255Z,4.50
2019-05-22T17:16:56.571Z,4.20
2019-05-22T17:19:28.029Z,4.27
2019-05-22T17:21:58.428Z,4.20
2019-05-22T17:24:29.456Z,4.63
2019-05-22T17:27:00.611Z,4.80
2019-05-22T17:29:31.955Z,4.70
2019-05-22T17:32:03.100Z,5.27
2019-05-22T17:34:35.346Z,3.70
2019-05-22T17:37:19.183Z,4.17
2019-05-22T17:39:52.755Z,4.67
2019-05-22T17:42:26.420Z,5.20
2019-05-22T17:44:59.578Z,5.20
2019-05-22T17:47:30.625Z,3.85
2019-05-22T17:50:03.021Z,3.83
2019-05-22T17:52:36.717Z,4.83
2019-05-22T17:55:09.425Z,4.55
2019-05-22T17:57:40.273Z,3.75
2019-05-22T18:00:37.000Z,3.72
2019-05-22T18:03:07.756Z,4.25
2019-05-22T18:05:38.672Z,4.05
2019-05-22T18:08:12.170Z,3.90
2019-05-22T18:13:25.359Z,4.45
2019-05-22T18:15:56.759Z,4.00
2019-05-22T18:18:27.183Z,3.47
2019-05-22T18:20:57.506Z,3.85
2019-05-22T18:23:29.439Z,3.27
2019-05-22T18:25:59.904Z,4.20
2019-05-22T18:28:30.778Z,3.60
2019-05-22T18:31:01.227Z,3.85
2019-05-22T18:33:34.543Z,3.30
2019-05-22T18:36:05.701Z,3.30
2019-05-22T18:38:36.433Z,3.70
2019-05-22T18:41:07.625Z,3.00
2019-05-22T18:43:38.117Z,3.92
2019-05-22T18:46:10.935Z,5.00
2019-05-22T18:48:41.843Z,5.25
2019-05-22T18:51:12.199Z,3.95
2019-05-22T18:53:42.390Z,3.75
2019-05-22T18:56:12.971Z,3.05
2019-05-22T18:58:44.295Z,3.30
2019-05-22T19:01:16.600Z,5.62
2019-05-22T19:03:47.529Z,6.00
2019-05-22T19:06:29.617Z,5.30
2019-05-22T19:08:51.632Z,5.12
2019-05-22T19:11:21.829Z,5.10
2019-05-22T19:13:53.980Z,4.72
2019-05-22T19:16:27.207Z,4.30
2019-05-22T19:18:57.526Z,4.40
2019-05-22T19:21:28.171Z,4.67
2019-05-22T19:23:59.105Z,4.75
2019-05-22T19:26:29.791Z,4.50
2019-05-22T19:29:00.420Z,4.87
2019-05-22T19:31:29.957Z,6.67
2019-05-22T19:34:00.292Z,4.70
2019-05-22T19:36:30.847Z,4.97
2019-05-22T19:39:01.711Z,4.80
2019-05-22T19:41:32.367Z,5.00
2019-05-22T19:45:41.748Z,4.95
2019-05-22T19:48:15.816Z,4.65
2019-05-22T19:50:47.983Z,5.72
2019-05-22T19:53:20.240Z,4.55
2019-05-22T19:55:51.072Z,4.60
2019-05-22T19:58:25.629Z,4.67
2019-05-22T20:00:55.771Z,4.65
2019-05-22T20:03:28.138Z,5.33
2019-05-22T20:05:59.165Z,4.95
2019-05-22T20:08:29.310Z,5.40
2019-05-22T20:11:00.105Z,5.40
2019-05-22T20:13:30.715Z,5.20
2019-05-22T20:16:02.232Z,4.85
2019-05-22T20:18:33.072Z,4.62
2019-05-22T20:21:03.551Z,5.08
2019-05-22T20:23:37.272Z,5.35
2019-05-22T20:26:08.087Z,5.40
2019-05-22T20:28:39.833Z,5.03
2019-05-22T20:31:14.918Z,4.95
2019-05-22T20:33:52.715Z,5.90
2019-05-22T20:36:26.578Z,5.58
2019-05-22T20:39:01.299Z,5.83
2019-05-22T20:41:33.253Z,5.50
2019-05-22T20:44:05.643Z,5.78
2019-05-22T20:46:37.886Z,4.45
2019-05-22T20:49:10.470Z,4.28
2019-05-22T20:51:41.772Z,5.10
2019-05-22T20:54:16.094Z,5.50
2019-05-22T20:56:50.328Z,6.62
2019-05-22T20:59:22.193Z,7.47
2019-05-22T21:01:57.334Z,7.08
2019-05-22T21:04:29.746Z,5.67
2019-05-22T21:07:06.301Z,14.38
2019-05-22T21:09:39.075Z,7.97
2019-05-22T21:12:17.060Z,7.12
2019-05-22T21:14:57.121Z,6.05
2019-05-22T21:17:29.801Z,5.75
2019-05-22T21:20:00.631Z,5.87
2019-05-22T21:22:35.638Z,5.60
2019-05-22T21:25:07.028Z,6.75
2019-05-22T21:27:38.447Z,6.15
2019-05-22T21:30:09.984Z,6.20
2019-05-22T21:32:41.272Z,7.17
2019-05-22T21:35:12.920Z,5.20
2019-05-22T21:37:44.853Z,6.80
2019-05-22T21:40:19.345Z,6.35
2019-05-22T21:42:58.263Z,6.67
2019-05-22T21:45:29.681Z,6.40
2019-05-22T21:48:01.276Z,6.50
2019-05-22T21:50:32.963Z,7.30
2019-05-22T21:53:09.594Z,8.28
2019-05-22T21:55:45.690Z,8.78
2019-05-22T21:58:21.728Z,6.80
2019-05-22T22:01:32.012Z,7.85
2019-05-22T22:04:18.149Z,8.70
2019-05-22T22:06:53.799Z,6.75
2019-05-22T22:09:26.221Z,6.70
2019-05-22T22:12:16.347Z,5.92
2019-05-22T22:14:48.487Z,5.65
2019-05-22T22:17:21.709Z,6.58
2019-05-22T22:19:52.836Z,6.17
2019-05-22T22:22:30.955Z,6.05
2019-05-22T22:25:02.718Z,7.10
2019-05-22T22:27:35.062Z,7.75
2019-05-22T22:30:36.319Z,7.42
2019-05-22T22:33:10.523Z,6.92
2019-05-22T22:35:47.780Z,7.20
2019-05-22T22:38:24.951Z,6.58
2019-05-22T22:40:58.055Z,6.97
2019-05-22T22:43:33.893Z,6.67
2019-05-22T22:46:09.544Z,7.60
2019-05-22T22:48:42.986Z,7.67
2019-05-22T22:51:18.253Z,7.47
2019-05-22T22:53:53.621Z,7.28
2019-05-22T22:56:25.568Z,6.80
2019-05-22T22:58:56.701Z,7.12
2019-05-22T23:01:34.683Z,7.50
2019-05-22T23:04:08.829Z,7.25
2019-05-22T23:06:43.157Z,8.10
2019-05-22T23:09:15.374Z,6.47
2019-05-22T23:11:51.876Z,7.33
2019-05-22T23:14:22.805Z,7.70
2019-05-22T23:16:53.660Z,8.75
2019-05-22T23:19:48.387Z,8.23
2019-05-22T23:22:20.097Z,7.10
2019-05-22T23:24:54.079Z,8.80
2019-05-22T23:27:27.328Z,7.22
2019-05-22T23:30:16.877Z,7.75
2019-05-22T23:32:47.132Z,7.83
2019-05-22T23:35:17.302Z,7.15
2019-05-22T23:37:48.119Z,7.70
2019-05-22T23:40:25.748Z,8.08
2019-05-22T23:43:00.468Z,7.60
2019-05-22T23:45:33.754Z,8.63
2019-05-22T23:48:11.722Z,7.97
2019-05-22T23:50:45.079Z,7.42
2019-05-22T23:53:16.389Z,8.50
2019-05-22T23:55:50.760Z,7.78
2019-05-22T23:58:25.075Z,8.43
